sensor_id;sensor_type;location;lat;lon;timestamp;pressure;altitude;pressure_sealevel;temperature;humidity
79639;BME280;69114;49.108;8.280;2024-01-06T00:00:16;99235.78;;;3.51;100.00
79639;BME280;69114;49.108;8.280;2024-01-06T00:02:41;99243.91;;;3.62;100.00
79639;BME280;69114;49.108;8.280;2024-01-06T00:05:07;99239.84;;;3.54;100.00
79639;BME280;69114;49.108;8.280;2024-01-06T00:07:32;99238.97;;;3.58;100.00
79639;BME280;69114;49.108;8.280;2024-01-06T00:09:58;99240.91;;;3.58;100.00
79639;BME280;69114;49.108;8.280;2024-01-06T00:12:23;99240.91;;;3.58;100.00
79639;BME280;69114;49.108;8.280;2024-01-06T00:14:48;99242.31;;;3.55;100.00
79639;BME280;69114;49.108;8.280;2024-01-06T00:17:14;99237.34;;;3.57;100.00
79639;BME280;69114;49.108;8.280;2024-01-06T00:19:39;99245.00;;;3.60;100.00
79639;BME280;69114;49.108;8.280;2024-01-06T00:22:05;99243.13;;;3.56;100.00
79639;BME280;69114;49.108;8.280;2024-01-06T00:24:30;99242.31;;;3.55;100.00
79639;BME280;69114;49.108;8.280;2024-01-06T00:26:56;99235.47;;;3.53;100.00
79639;BME280;69114;49.108;8.280;2024-01-06T00:29:21;99241.50;;;3.55;100.00
79639;BME280;69114;49.108;8.280;2024-01-06T00:31:46;99240.44;;;3.51;100.00
79639;BME280;69114;49.108;8.280;2024-01-06T00:34:12;99233.59;;;3.48;100.00
79639;BME280;69114;49.108;8.280;2024-01-06T00:36:37;99237.97;;;3.49;100.00
79639;BME280;69114;49.108;8.280;2024-01-06T00:39:02;99238.28;;;3.48;100.00
79639;BME280;69114;49.108;8.280;2024-01-06T00:41:29;99236.91;;;3.45;100.00
79639;BME280;69114;49.108;8.280;2024-01-06T00:43:54;99238.34;;;3.43;100.00
79639;BME280;69114;49.108;8.280;2024-01-06T00:46:19;99244.41;;;3.40;100.00
79639;BME280;69114;49.108;8.280;2024-01-06T00:48:45;99238.09;;;3.39;100.00
79639;BME280;69114;49.108;8.280;2024-01-06T00:51:10;99237.59;;;3.37;100.00
79639;BME280;69114;49.108;8.280;2024-01-06T00:53:35;99235.66;;;3.38;100.00
79639;BME280;69114;49.108;8.280;2024-01-06T00:56:01;99239.47;;;3.37;100.00
79639;BME280;69114;49.108;8.280;2024-01-06T00:58:26;99243.97;;;3.32;100.00
79639;BME280;69114;49.108;8.280;2024-01-06T01:00:52;99245.09;;;3.26;100.00
79639;BME280;69114;49.108;8.280;2024-01-06T01:03:17;99238.25;;;3.24;100.00
79639;BME280;69114;49.108;8.280;2024-01-06T01:05:42;99242.41;;;3.21;100.00
79639;BME280;69114;49.108;8.280;2024-01-06T01:08:08;99248.16;;;3.25;100.00
79639;BME280;69114;49.108;8.280;2024-01-06T01:10:33;99253.66;;;3.25;100.00
79639;BME280;69114;49.108;8.280;2024-01-06T01:12:58;99253.09;;;3.28;100.00
79639;BME280;69114;49.108;8.280;2024-01-06T01:15:23;99255.28;;;3.26;100.00
79639;BME280;69114;49.108;8.280;2024-01-06T01:17:49;99250.56;;;3.31;100.00
79639;BME280;69114;49.108;8.280;2024-01-06T01:20:14;99267.00;;;3.37;100.00
79639;BME280;69114;49.108;8.280;2024-01-06T01:22:39;99277.44;;;3.40;100.00
79639;BME280;69114;49.108;8.280;2024-01-06T01:25:05;99281.13;;;3.30;100.00
79639;BME280;69114;49.108;8.280;2024-01-06T01:27:33;99280.59;;;3.28;100.00
79639;BME280;69114;49.108;8.280;2024-01-06T01:29:59;99294.38;;;3.23;100.00
79639;BME280;69114;49.108;8.280;2024-01-06T01:32:24;99288.94;;;3.18;100.00
79639;BME280;69114;49.108;8.280;2024-01-06T01:34:50;99285.75;;;3.05;100.00
79639;BME280;69114;49.108;8.280;2024-01-06T01:37:15;99289.66;;;2.99;100.00
79639;BME280;69114;49.108;8.280;2024-01-06T01:39:40;99297.38;;;2.97;100.00
79639;BME280;69114;49.108;8.280;2024-01-06T01:42:06;99308.88;;;3.04;100.00
79639;BME280;69114;49.108;8.280;2024-01-06T01:44:31;99309.16;;;3.03;100.00
79639;BME280;69114;49.108;8.280;2024-01-06T01:46:56;99306.09;;;3.10;100.00
79639;BME280;69114;49.108;8.280;2024-01-06T01:49:22;99311.06;;;3.02;100.00
79639;BME280;69114;49.108;8.280;2024-01-06T01:51:48;99310.59;;;2.95;100.00
79639;BME280;69114;49.108;8.280;2024-01-06T01:54:18;99317.22;;;2.89;100.00
79639;BME280;69114;49.108;8.280;2024-01-06T01:56:43;99323.03;;;2.88;100.00
79639;BME280;69114;49.108;8.280;2024-01-06T01:59:11;99327.75;;;2.82;100.00
79639;BME280;69114;49.108;8.280;2024-01-06T02:01:38;99331.09;;;2.74;100.00
79639;BME280;69114;49.108;8.280;2024-01-06T02:04:04;99331.69;;;2.71;100.00
79639;BME280;69114;49.108;8.280;2024-01-06T02:06:29;99341.00;;;2.70;100.00
79639;BME280;69114;49.108;8.280;2024-01-06T02:08:55;99335.00;;;2.68;100.00
79639;BME280;69114;49.108;8.280;2024-01-06T02:11:20;99346.00;;;2.68;100.00
79639;BME280;69114;49.108;8.280;2024-01-06T02:13:46;99350.94;;;2.66;100.00
79639;BME280;69114;49.108;8.280;2024-01-06T02:16:11;99351.56;;;2.58;100.00
79639;BME280;69114;49.108;8.280;2024-01-06T02:18:36;99352.66;;;2.56;100.00
79639;BME280;69114;49.108;8.280;2024-01-06T02:21:02;99351.25;;;2.59;100.00
79639;BME280;69114;49.108;8.280;2024-01-06T02:23:28;99353.19;;;2.59;100.00
79639;BME280;69114;49.108;8.280;2024-01-06T02:25:54;99351.06;;;2.45;100.00
79639;BME280;69114;49.108;8.280;2024-01-06T02:28:20;99354.69;;;2.36;100.00
79639;BME280;69114;49.108;8.280;2024-01-06T02:30:45;99361.28;;;2.35;100.00
79639;BME280;69114;49.108;8.280;2024-01-06T02:33:10;99367.91;;;2.28;100.00
79639;BME280;69114;49.108;8.280;2024-01-06T02:35:36;99364.63;;;2.21;100.00
79639;BME280;69114;49.108;8.280;2024-01-06T02:38:01;99367.91;;;2.28;100.00
79639;BME280;69114;49.108;8.280;2024-01-06T02:40:27;99375.88;;;2.25;100.00
79639;BME280;69114;49.108;8.280;2024-01-06T02:42:52;99372.59;;;2.28;100.00
79639;BME280;69114;49.108;8.280;2024-01-06T02:45:17;99371.44;;;2.34;100.00
79639;BME280;69114;49.108;8.280;2024-01-06T02:47:43;99378.59;;;2.35;100.00
79639;BME280;69114;49.108;8.280;2024-01-06T02:50:08;99380.72;;;2.48;100.00
79639;BME280;69114;49.108;8.280;2024-01-06T02:52:34;99383.47;;;2.48;100.00
79639;BME280;69114;49.108;8.280;2024-01-06T02:54:59;99384.00;;;2.50;100.00
79639;BME280;69114;49.108;8.280;2024-01-06T02:57:26;99391.44;;;2.50;100.00
79639;BME280;69114;49.108;8.280;2024-01-06T02:59:52;99391.16;;;2.46;100.00
79639;BME280;69114;49.108;8.280;2024-01-06T03:02:17;99394.22;;;2.45;100.00
79639;BME280;69114;49.108;8.280;2024-01-06T03:04:42;99394.75;;;2.42;100.00
79639;BME280;69114;49.108;8.280;2024-01-06T03:07:08;99402.97;;;2.47;100.00
79639;BME280;69114;49.108;8.280;2024-01-06T03:09:33;99396.66;;;2.56;100.00
79639;BME280;69114;49.108;8.280;2024-01-06T03:11:58;99397.16;;;2.64;100.00
79639;BME280;69114;49.108;8.280;2024-01-06T03:14:27;99399.56;;;2.70;100.00
79639;BME280;69114;49.108;8.280;2024-01-06T03:16:52;99409.72;;;2.75;100.00
79639;BME280;69114;49.108;8.280;2024-01-06T03:19:17;99410.28;;;2.77;100.00
79639;BME280;69114;49.108;8.280;2024-01-06T03:21:43;99411.06;;;2.82;100.00
79639;BME280;69114;49.108;8.280;2024-01-06T03:24:08;99407.47;;;2.87;100.00
79639;BME280;69114;49.108;8.280;2024-01-06T03:26:34;99412.13;;;2.92;100.00
79639;BME280;69114;49.108;8.280;2024-01-06T03:29:07;99410.44;;;2.96;100.00
79639;BME280;69114;49.108;8.280;2024-01-06T03:31:32;99409.84;;;2.99;100.00
79639;BME280;69114;49.108;8.280;2024-01-06T03:33:58;99416.22;;;2.99;100.00
79639;BME280;69114;49.108;8.280;2024-01-06T03:36:23;99414.50;;;3.03;100.00
79639;BME280;69114;49.108;8.280;2024-01-06T03:38:48;99405.44;;;3.03;100.00
79639;BME280;69114;49.108;8.280;2024-01-06T03:41:14;99414.50;;;3.03;100.00
79639;BME280;69114;49.108;8.280;2024-01-06T03:43:39;99402.69;;;3.03;100.00
79639;BME280;69114;49.108;8.280;2024-01-06T03:46:05;99407.09;;;3.04;100.00
79639;BME280;69114;49.108;8.280;2024-01-06T03:48:30;99399.09;;;3.02;100.00
79639;BME280;69114;49.108;8.280;2024-01-06T03:50:57;99411.75;;;3.03;100.00
79639;BME280;69114;49.108;8.280;2024-01-06T03:53:22;99412.31;;;3.05;100.00
79639;BME280;69114;49.108;8.280;2024-01-06T03:55:47;99411.19;;;3.06;100.00
79639;BME280;69114;49.108;8.280;2024-01-06T03:58:13;99402.66;;;3.08;100.00
79639;BME280;69114;49.108;8.280;2024-01-06T04:00:38;99400.19;;;3.06;100.00
79639;BME280;69114;49.108;8.280;2024-01-06T04:03:03;99405.19;;;2.99;100.00
79639;BME280;69114;49.108;8.280;2024-01-06T04:05:30;99401.31;;;3.05;100.00
79639;BME280;69114;49.108;8.280;2024-01-06T04:07:56;99400.72;;;3.08;100.00
79639;BME280;69114;49.108;8.280;2024-01-06T04:10:21;99398.84;;;3.04;100.00
79639;BME280;69114;49.108;8.280;2024-01-06T04:12:46;99390.03;;;3.02;100.00
79639;BME280;69114;49.108;8.280;2024-01-06T04:15:12;99383.16;;;3.04;100.00
79639;BME280;69114;49.108;8.280;2024-01-06T04:17:37;99387.00;;;3.03;100.00
79639;BME280;69114;49.108;8.280;2024-01-06T04:20:02;99388.41;;;3.01;100.00
79639;BME280;69114;49.108;8.280;2024-01-06T04:22:29;99383.41;;;3.03;100.00
79639;BME280;69114;49.108;8.280;2024-01-06T04:24:54;99375.47;;;3.01;100.00
79639;BME280;69114;49.108;8.280;2024-01-06T04:27:22;99378.25;;;2.96;100.00
79639;BME280;69114;49.108;8.280;2024-01-06T04:29:48;99383.19;;;2.94;100.00
79639;BME280;69114;49.108;8.280;2024-01-06T04:32:13;99379.66;;;2.89;100.00
79639;BME280;69114;49.108;8.280;2024-01-06T04:34:38;99389.81;;;2.93;100.00
79639;BME280;69114;49.108;8.280;2024-01-06T04:37:04;99383.50;;;2.93;100.00
79639;BME280;69114;49.108;8.280;2024-01-06T04:39:29;99387.06;;;2.93;100.00
79639;BME280;69114;49.108;8.280;2024-01-06T04:41:57;99374.72;;;2.91;100.00
79639;BME280;69114;49.108;8.280;2024-01-06T04:44:23;99373.59;;;2.92;100.00
79639;BME280;69114;49.108;8.280;2024-01-06T04:46:49;99366.72;;;2.89;100.00
79639;BME280;69114;49.108;8.280;2024-01-06T04:49:14;99372.28;;;2.84;100.00
79639;BME280;69114;49.108;8.280;2024-01-06T04:51:39;99381.09;;;2.81;100.00
79639;BME280;69114;49.108;8.280;2024-01-06T04:54:05;99380.84;;;2.77;100.00
79639;BME280;69114;49.108;8.280;2024-01-06T04:56:30;99386.34;;;2.77;100.00
79639;BME280;69114;49.108;8.280;2024-01-06T04:58:55;99382.22;;;2.75;100.00
79639;BME280;69114;49.108;8.280;2024-01-06T05:01:22;99389.13;;;2.72;100.00
79639;BME280;69114;49.108;8.280;2024-01-06T05:03:48;99390.47;;;2.75;100.00
79639;BME280;69114;49.108;8.280;2024-01-06T05:06:13;99397.63;;;2.76;100.00
79639;BME280;69114;49.108;8.280;2024-01-06T05:08:38;99395.97;;;2.75;100.00
79639;BME280;69114;49.108;8.280;2024-01-06T05:11:09;99405.31;;;2.79;100.00
79639;BME280;69114;49.108;8.280;2024-01-06T05:13:35;99401.22;;;2.76;100.00
79639;BME280;69114;49.108;8.280;2024-01-06T05:16:00;99403.34;;;2.85;100.00
79639;BME280;69114;49.108;8.280;2024-01-06T05:18:26;99400.63;;;2.79;100.00
79639;BME280;69114;49.108;8.280;2024-01-06T05:20:51;99398.94;;;2.83;100.00
79639;BME280;69114;49.108;8.280;2024-01-06T05:23:16;99400.88;;;2.83;100.00
79639;BME280;69114;49.108;8.280;2024-01-06T05:25:42;99403.03;;;2.91;100.00
79639;BME280;69114;49.108;8.280;2024-01-06T05:28:07;99400.59;;;2.90;100.00
79639;BME280;69114;49.108;8.280;2024-01-06T05:30:32;99402.44;;;2.94;100.00
79639;BME280;69114;49.108;8.280;2024-01-06T05:32:58;99408.81;;;2.95;100.00
79639;BME280;69114;49.108;8.280;2024-01-06T05:35:23;99407.13;;;2.94;100.00
79639;BME280;69114;49.108;8.280;2024-01-06T05:37:51;99407.94;;;2.99;100.00
79639;BME280;69114;49.108;8.280;2024-01-06T05:40:16;99401.59;;;2.99;100.00
79639;BME280;69114;49.108;8.280;2024-01-06T05:42:42;99398.03;;;2.98;100.00
79639;BME280;69114;49.108;8.280;2024-01-06T05:45:10;99396.66;;;3.01;100.00
79639;BME280;69114;49.108;8.280;2024-01-06T05:47:37;99396.41;;;2.97;100.00
79639;BME280;69114;49.108;8.280;2024-01-06T05:50:02;99400.53;;;3.00;100.00
79639;BME280;69114;49.108;8.280;2024-01-06T05:52:27;99401.84;;;3.02;100.00
79639;BME280;69114;49.108;8.280;2024-01-06T05:54:53;99402.41;;;3.04;100.00
79639;BME280;69114;49.108;8.280;2024-01-06T05:57:18;99406.25;;;3.03;100.00
79639;BME280;69114;49.108;8.280;2024-01-06T05:59:43;99403.22;;;3.05;100.00
79639;BME280;69114;49.108;8.280;2024-01-06T06:02:08;99411.50;;;3.05;100.00
79639;BME280;69114;49.108;8.280;2024-01-06T06:04:34;99415.06;;;3.05;100.00
79639;BME280;69114;49.108;8.280;2024-01-06T06:06:59;99417.78;;;3.11;100.00
79639;BME280;69114;49.108;8.280;2024-01-06T06:09:24;99432.88;;;3.13;100.00
79639;BME280;69114;49.108;8.280;2024-01-06T06:11:50;99437.56;;;3.13;100.00
79639;BME280;69114;49.108;8.280;2024-01-06T06:14:15;99437.81;;;3.16;100.00
79639;BME280;69114;49.108;8.280;2024-01-06T06:16:40;99450.75;;;3.16;100.00
79639;BME280;69114;49.108;8.280;2024-01-06T06:19:06;99438.06;;;3.20;100.00
79639;BME280;69114;49.108;8.280;2024-01-06T06:21:32;99447.66;;;3.22;100.00
79639;BME280;69114;49.108;8.280;2024-01-06T06:24:01;99453.44;;;3.26;100.00
79639;BME280;69114;49.108;8.280;2024-01-06T06:26:28;99454.25;;;3.26;100.00
79639;BME280;69114;49.108;8.280;2024-01-06T06:28:53;99450.66;;;3.31;100.00
79639;BME280;69114;49.108;8.280;2024-01-06T06:31:22;99455.63;;;3.29;100.00
79639;BME280;69114;49.108;8.280;2024-01-06T06:33:47;99456.97;;;3.31;100.00
79639;BME280;69114;49.108;8.280;2024-01-06T06:36:15;99464.16;;;3.32;100.00
79639;BME280;69114;49.108;8.280;2024-01-06T06:38:40;99463.84;;;3.34;100.00
79639;BME280;69114;49.108;8.280;2024-01-06T06:41:06;99471.81;;;3.36;100.00
79639;BME280;69114;49.108;8.280;2024-01-06T06:43:31;99469.31;;;3.39;100.00
79639;BME280;69114;49.108;8.280;2024-01-06T06:45:57;99472.09;;;3.34;100.00
79639;BME280;69114;49.108;8.280;2024-01-06T06:48:22;99481.97;;;3.40;100.00
79639;BME280;69114;49.108;8.280;2024-01-06T06:50:47;99479.75;;;3.42;100.00
79639;BME280;69114;49.108;8.280;2024-01-06T06:53:13;99488.03;;;3.42;100.00
79639;BME280;69114;49.108;8.280;2024-01-06T06:55:39;99486.34;;;3.41;100.00
79639;BME280;69114;49.108;8.280;2024-01-06T06:58:06;99485.28;;;3.42;100.00
79639;BME280;69114;49.108;8.280;2024-01-06T07:00:31;99481.66;;;3.42;100.00
79639;BME280;69114;49.108;8.280;2024-01-06T07:02:56;99483.91;;;3.40;100.00
79639;BME280;69114;49.108;8.280;2024-01-06T07:05:22;99493.22;;;3.44;100.00
79639;BME280;69114;49.108;8.280;2024-01-06T07:07:48;99495.69;;;3.45;100.00
79639;BME280;69114;49.108;8.280;2024-01-06T07:10:13;99508.34;;;3.46;100.00
79639;BME280;69114;49.108;8.280;2024-01-06T07:12:39;99506.97;;;3.49;100.00
79639;BME280;69114;49.108;8.280;2024-01-06T07:15:08;99511.66;;;3.48;100.00
79639;BME280;69114;49.108;8.280;2024-01-06T07:17:35;99514.09;;;3.50;100.00
79639;BME280;69114;49.108;8.280;2024-01-06T07:20:02;99520.44;;;3.50;100.00
79639;BME280;69114;49.108;8.280;2024-01-06T07:22:27;99527.06;;;3.49;100.00
79639;BME280;69114;49.108;8.280;2024-01-06T07:24:53;99527.59;;;3.51;100.00
79639;BME280;69114;49.108;8.280;2024-01-06T07:27:18;99536.41;;;3.53;100.00
79639;BME280;69114;49.108;8.280;2024-01-06T07:29:45;99538.63;;;3.51;100.00
79639;BME280;69114;49.108;8.280;2024-01-06T07:32:10;99534.75;;;3.52;100.00
79639;BME280;69114;49.108;8.280;2024-01-06T07:34:35;99534.97;;;3.56;100.00
79639;BME280;69114;49.108;8.280;2024-01-06T07:37:00;99531.72;;;3.54;100.00
79639;BME280;69114;49.108;8.280;2024-01-06T07:39:26;99544.63;;;3.58;100.00
79639;BME280;69114;49.108;8.280;2024-01-06T07:41:51;99536.06;;;3.60;100.00
79639;BME280;69114;49.108;8.280;2024-01-06T07:44:16;99535.84;;;3.56;100.00
79639;BME280;69114;49.108;8.280;2024-01-06T07:46:48;99539.63;;;3.60;100.00
79639;BME280;69114;49.108;8.280;2024-01-06T07:49:13;99541.00;;;3.63;100.00
79639;BME280;69114;49.108;8.280;2024-01-06T07:51:39;99548.44;;;3.63;100.00
79639;BME280;69114;49.108;8.280;2024-01-06T07:54:04;99547.34;;;3.64;100.00
79639;BME280;69114;49.108;8.280;2024-01-06T07:56:31;99544.06;;;3.62;100.00
79639;BME280;69114;49.108;8.280;2024-01-06T07:58:57;99554.53;;;3.59;100.00
79639;BME280;69114;49.108;8.280;2024-01-06T08:01:22;99556.16;;;3.60;100.00
79639;BME280;69114;49.108;8.280;2024-01-06T08:03:47;99558.69;;;3.57;100.00
79639;BME280;69114;49.108;8.280;2024-01-06T08:06:13;99555.16;;;3.51;100.00
79639;BME280;69114;49.108;8.280;2024-01-06T08:08:38;99556.53;;;3.49;100.00
79639;BME280;69114;49.108;8.280;2024-01-06T08:11:03;99563.41;;;3.46;100.00
79639;BME280;69114;49.108;8.280;2024-01-06T08:13:29;99566.16;;;3.46;100.00
79639;BME280;69114;49.108;8.280;2024-01-06T08:15:54;99565.06;;;3.47;100.00
79639;BME280;69114;49.108;8.280;2024-01-06T08:18:20;99568.91;;;3.46;100.00
79639;BME280;69114;49.108;8.280;2024-01-06T08:20:46;99565.34;;;3.46;100.00
79639;BME280;69114;49.108;8.280;2024-01-06T08:23:11;99576.34;;;3.46;100.00
79639;BME280;69114;49.108;8.280;2024-01-06T08:25:37;99574.19;;;3.43;100.00
79639;BME280;69114;49.108;8.280;2024-01-06T08:28:02;99575.56;;;3.40;100.00
79639;BME280;69114;49.108;8.280;2024-01-06T08:30:28;99585.50;;;3.36;100.00
79639;BME280;69114;49.108;8.280;2024-01-06T08:32:53;99592.66;;;3.37;100.00
79639;BME280;69114;49.108;8.280;2024-01-06T08:35:18;99599.81;;;3.38;100.00
79639;BME280;69114;49.108;8.280;2024-01-06T08:37:46;99595.13;;;3.39;100.00
79639;BME280;69114;49.108;8.280;2024-01-06T08:40:15;99585.19;;;3.43;100.00
79639;BME280;69114;49.108;8.280;2024-01-06T08:42:40;99593.16;;;3.44;100.00
79639;BME280;69114;49.108;8.280;2024-01-06T08:45:05;99606.38;;;3.47;100.00
79639;BME280;69114;49.108;8.280;2024-01-06T08:47:31;99605.25;;;3.48;100.00
79639;BME280;69114;49.108;8.280;2024-01-06T08:49:56;99604.16;;;3.49;100.00
79639;BME280;69114;49.108;8.280;2024-01-06T08:52:22;99603.84;;;3.51;100.00
79639;BME280;69114;49.108;8.280;2024-01-06T08:54:47;99599.19;;;3.51;100.00
79639;BME280;69114;49.108;8.280;2024-01-06T08:57:14;99604.13;;;3.54;100.00
79639;BME280;69114;49.108;8.280;2024-01-06T08:59:42;99604.66;;;3.56;100.00
79639;BME280;69114;49.108;8.280;2024-01-06T09:02:13;99605.19;;;3.58;100.00
79639;BME280;69114;49.108;8.280;2024-01-06T09:04:38;99609.56;;;3.65;100.00
79639;BME280;69114;49.108;8.280;2024-01-06T09:07:04;99603.53;;;3.63;100.00
79639;BME280;69114;49.108;8.280;2024-01-06T09:09:30;99607.59;;;3.75;100.00
79639;BME280;69114;49.108;8.280;2024-01-06T09:11:55;99604.03;;;3.70;100.00
79639;BME280;69114;49.108;8.280;2024-01-06T09:14:20;99607.84;;;3.74;100.00
79639;BME280;69114;49.108;8.280;2024-01-06T09:16:46;99608.16;;;3.72;100.00
79639;BME280;69114;49.108;8.280;2024-01-06T09:19:11;99608.41;;;3.76;100.00
79639;BME280;69114;49.108;8.280;2024-01-06T09:21:37;99609.50;;;3.80;100.00
79639;BME280;69114;49.108;8.280;2024-01-06T09:24:05;99611.66;;;3.83;100.00
79639;BME280;69114;49.108;8.280;2024-01-06T09:26:35;99609.47;;;3.85;100.00
79639;BME280;69114;49.108;8.280;2024-01-06T09:29:01;99610.50;;;3.89;100.00
79639;BME280;69114;49.108;8.280;2024-01-06T09:31:27;99619.31;;;3.91;100.00
79639;BME280;69114;49.108;8.280;2024-01-06T09:33:52;99619.28;;;3.96;100.00
79639;BME280;69114;49.108;8.280;2024-01-06T09:36:18;99627.03;;;3.94;100.00
79639;BME280;69114;49.108;8.280;2024-01-06T09:38:43;99627.28;;;3.93;100.00
79639;BME280;69114;49.108;8.280;2024-01-06T09:41:09;99636.94;;;3.95;100.00
79639;BME280;69114;49.108;8.280;2024-01-06T09:43:34;99633.56;;;4.03;100.00
79639;BME280;69114;49.108;8.280;2024-01-06T09:46:10;99630.50;;;4.10;100.00
79639;BME280;69114;49.108;8.280;2024-01-06T09:48:40;99633.09;;;4.30;100.00
79639;BME280;69114;49.108;8.280;2024-01-06T09:51:10;99633.59;;;4.38;100.00
79639;BME280;69114;49.108;8.280;2024-01-06T09:53:36;99647.38;;;4.38;100.00
79639;BME280;69114;49.108;8.280;2024-01-06T09:56:05;99637.13;;;4.43;100.00
79639;BME280;69114;49.108;8.280;2024-01-06T09:58:33;99644.25;;;4.49;100.00
79639;BME280;69114;49.108;8.280;2024-01-06T10:01:00;99649.78;;;4.44;100.00
79639;BME280;69114;49.108;8.280;2024-01-06T10:03:25;99641.53;;;4.44;100.00
79639;BME280;69114;49.108;8.280;2024-01-06T10:05:54;99646.53;;;4.42;100.00
79639;BME280;69114;49.108;8.280;2024-01-06T10:08:22;99642.06;;;4.46;100.00
79639;BME280;69114;49.108;8.280;2024-01-06T10:10:50;99639.28;;;4.51;100.00
79639;BME280;69114;49.108;8.280;2024-01-06T10:13:17;99635.16;;;4.49;100.00
79639;BME280;69114;49.108;8.280;2024-01-06T10:15:42;99637.03;;;4.53;100.00
79639;BME280;69114;49.108;8.280;2024-01-06T10:18:07;99636.75;;;4.55;100.00
79639;BME280;69114;49.108;8.280;2024-01-06T10:20:36;99643.28;;;4.64;100.00
79639;BME280;69114;49.108;8.280;2024-01-06T10:23:05;99638.34;;;4.61;100.00
79639;BME280;69114;49.108;8.280;2024-01-06T10:25:31;99632.53;;;4.62;100.00
79639;BME280;69114;49.108;8.280;2024-01-06T10:27:57;99628.00;;;4.77;100.00
79639;BME280;69114;49.108;8.280;2024-01-06T10:30:25;99633.94;;;4.89;100.00
79639;BME280;69114;49.108;8.280;2024-01-06T10:32:51;99631.72;;;4.91;100.00
79639;BME280;69114;49.108;8.280;2024-01-06T10:35:18;99632.84;;;5.14;100.00
79639;BME280;69114;49.108;8.280;2024-01-06T10:37:44;99617.63;;;5.17;100.00
79639;BME280;69114;49.108;8.280;2024-01-06T10:40:15;99633.59;;;5.20;100.00
79639;BME280;69114;49.108;8.280;2024-01-06T10:42:45;99631.72;;;5.15;100.00
79639;BME280;69114;49.108;8.280;2024-01-06T10:45:12;99637.59;;;5.08;100.00
79639;BME280;69114;49.108;8.280;2024-01-06T10:47:42;99637.94;;;5.02;100.00
79639;BME280;69114;49.108;8.280;2024-01-06T10:50:10;99639.88;;;5.01;100.00
79639;BME280;69114;49.108;8.280;2024-01-06T10:52:37;99645.47;;;4.96;100.00
79639;BME280;69114;49.108;8.280;2024-01-06T10:55:04;99640.56;;;4.88;100.00
79639;BME280;69114;49.108;8.280;2024-01-06T10:57:31;99641.25;;;5.04;100.00
79639;BME280;69114;49.108;8.280;2024-01-06T10:59:59;99643.25;;;4.93;100.00
79639;BME280;69114;49.108;8.280;2024-01-06T11:02:29;99647.44;;;4.91;100.00
79639;BME280;69114;49.108;8.280;2024-01-06T11:04:58;99648.03;;;4.87;100.00
79639;BME280;69114;49.108;8.280;2024-01-06T11:07:28;99632.88;;;4.85;100.00
79639;BME280;69114;49.108;8.280;2024-01-06T11:10:05;99640.03;;;4.86;100.00
79639;BME280;69114;49.108;8.280;2024-01-06T11:12:32;99641.69;;;4.87;100.00
79639;BME280;69114;49.108;8.280;2024-01-06T11:14:58;99643.88;;;4.90;100.00
79639;BME280;69114;49.108;8.280;2024-01-06T11:20:14;99635.69;;;4.80;100.00
79639;BME280;69114;49.108;8.280;2024-01-06T11:22:39;99637.34;;;4.81;100.00
79639;BME280;69114;49.108;8.280;2024-01-06T11:25:06;99637.03;;;4.82;100.00
79639;BME280;69114;49.108;8.280;2024-01-06T11:27:32;99633.47;;;4.82;100.00
79639;BME280;69114;49.108;8.280;2024-01-06T11:29:59;99636.22;;;4.82;100.00
79639;BME280;69114;49.108;8.280;2024-01-06T11:32:34;99638.41;;;4.85;100.00
79639;BME280;69114;49.108;8.280;2024-01-06T11:35:13;99629.44;;;4.69;100.00
79639;BME280;69114;49.108;8.280;2024-01-06T11:43:02;99631.69;;;4.67;100.00
79639;BME280;69114;49.108;8.280;2024-01-06T11:45:28;99625.00;;;4.73;100.00
79639;BME280;69114;49.108;8.280;2024-01-06T11:47:56;99624.75;;;4.70;100.00
79639;BME280;69114;49.108;8.280;2024-01-06T11:50:24;99625.75;;;4.79;100.00
79639;BME280;69114;49.108;8.280;2024-01-06T11:52:50;99624.06;;;4.83;100.00
79639;BME280;69114;49.108;8.280;2024-01-06T11:55:17;99627.63;;;4.83;100.00
79639;BME280;69114;49.108;8.280;2024-01-06T11:57:44;99623.50;;;4.86;100.00
79639;BME280;69114;49.108;8.280;2024-01-06T12:00:09;99632.53;;;4.92;100.00
79639;BME280;69114;49.108;8.280;2024-01-06T12:02:35;99621.25;;;4.88;100.00
79639;BME280;69114;49.108;8.280;2024-01-06T12:05:00;99620.44;;;4.87;100.00
79639;BME280;69114;49.108;8.280;2024-01-06T12:07:26;99623.72;;;4.90;100.00
79639;BME280;69114;49.108;8.280;2024-01-06T12:10:00;99619.84;;;4.91;100.00
79639;BME280;69114;49.108;8.280;2024-01-06T12:12:26;99612.34;;;4.96;100.00
79639;BME280;69114;49.108;8.280;2024-01-06T12:14:51;99607.63;;;4.97;100.00
79639;BME280;69114;49.108;8.280;2024-01-06T12:17:17;99617.28;;;4.99;100.00
79639;BME280;69114;49.108;8.280;2024-01-06T12:19:42;99618.34;;;5.03;100.00
79639;BME280;69114;49.108;8.280;2024-01-06T12:22:10;99626.09;;;5.01;100.00
79639;BME280;69114;49.108;8.280;2024-01-06T12:24:37;99617.28;;;4.99;100.00
79639;BME280;69114;49.108;8.280;2024-01-06T12:27:02;99612.59;;;5.00;100.00
79639;BME280;69114;49.108;8.280;2024-01-06T12:29:29;99610.59;;;5.05;100.00
79639;BME280;69114;49.108;8.280;2024-01-06T12:31:55;99615.53;;;5.08;100.00
79639;BME280;69114;49.108;8.280;2024-01-06T12:34:21;99606.63;;;5.11;100.00
79639;BME280;69114;49.108;8.280;2024-01-06T12:36:47;99606.13;;;5.09;100.00
79639;BME280;69114;49.108;8.280;2024-01-06T12:39:13;99610.47;;;5.16;100.00
79639;BME280;69114;49.108;8.280;2024-01-06T12:41:40;99605.75;;;5.16;100.00
79639;BME280;69114;49.108;8.280;2024-01-06T12:44:06;99609.41;;;5.11;100.00
79639;BME280;69114;49.108;8.280;2024-01-06T12:46:32;99608.56;;;5.11;100.00
79639;BME280;69114;49.108;8.280;2024-01-06T12:48:57;99604.94;;;5.16;100.00
79639;BME280;69114;49.108;8.280;2024-01-06T12:51:23;99602.94;;;5.21;100.00
79639;BME280;69114;49.108;8.280;2024-01-06T12:53:48;99605.41;;;5.23;100.00
79639;BME280;69114;49.108;8.280;2024-01-06T12:56:13;99608.38;;;5.26;100.00
79639;BME280;69114;49.108;8.280;2024-01-06T12:58:40;99617.56;;;5.22;100.00
79639;BME280;69114;49.108;8.280;2024-01-06T13:01:06;99614.22;;;5.25;100.00